createdAt,value
2024-05-09T00:00:15.586Z,96412.25
2024-05-09T00:00:50.277Z,96376.31
2024-05-09T00:01:22.061Z,96413.38
2024-05-09T00:01:53.798Z,96384.31
2024-05-09T00:02:25.630Z,96413.91
2024-05-09T00:02:57.439Z,96384.25
2024-05-09T00:03:29.293Z,96390.16
2024-05-09T00:04:01.103Z,96407.25
2024-05-09T00:04:32.982Z,96398.28
2024-05-09T00:05:05.123Z,96402.38
2024-05-09T00:05:37.237Z,96413.09
2024-05-09T00:06:09.889Z,96408.22
2024-05-09T00:06:41.687Z,96412.59
2024-05-09T00:07:13.371Z,96406.97
2024-05-09T00:07:45.057Z,96420.50
2024-05-09T00:08:16.861Z,96397.56
2024-05-09T00:08:48.515Z,96384.09
2024-05-09T00:09:20.210Z,96385.81
2024-05-09T00:09:51.842Z,96418.00
2024-05-09T00:10:32.632Z,96418.25
2024-05-09T00:11:07.570Z,96368.53
2024-05-09T00:11:39.918Z,96379.34
2024-05-09T00:12:11.834Z,96407.91
2024-05-09T00:12:44.752Z,96375.22
2024-05-09T00:13:16.606Z,96392.56
2024-05-09T00:13:48.364Z,96387.72
2024-05-09T00:14:20.093Z,96418.31
2024-05-09T00:14:52.389Z,96386.75
2024-05-09T00:15:24.060Z,96402.28
2024-05-09T00:15:55.686Z,96394.84
2024-05-09T00:16:27.396Z,96375.50
2024-05-09T00:16:59.102Z,96396.38
2024-05-09T00:17:30.934Z,96407.88
2024-05-09T00:18:03.288Z,96411.72
2024-05-09T00:18:35.552Z,96384.34
2024-05-09T00:19:07.482Z,96395.84
2024-05-09T00:19:39.445Z,96377.97
2024-05-09T00:20:17.703Z,96417.72
2024-05-09T00:20:55.790Z,96413.44
2024-05-09T00:21:28.795Z,96402.03
2024-05-09T00:22:01.807Z,96375.50
2024-05-09T00:22:33.518Z,96414.44
2024-05-09T00:23:06.866Z,96378.75
2024-05-09T00:23:39.217Z,96360.63
2024-05-09T00:24:11.095Z,96403.75
2024-05-09T00:24:42.892Z,96375.19
2024-05-09T00:25:14.647Z,96387.97
2024-05-09T00:25:46.305Z,96395.31
2024-05-09T00:26:18.484Z,96402.41
2024-05-09T00:26:50.193Z,96363.91
2024-05-09T00:27:22.687Z,96357.25
2024-05-09T00:27:54.275Z,96400.66
2024-05-09T00:28:26.068Z,96400.38
2024-05-09T00:28:57.751Z,96411.81
2024-05-09T00:29:29.578Z,96357.84
2024-05-09T00:30:01.347Z,96369.78
2024-05-09T00:30:35.953Z,96358.00
2024-05-09T00:31:10.220Z,96365.97
2024-05-09T00:31:41.876Z,96389.19
2024-05-09T00:32:13.751Z,96351.44
2024-05-09T00:32:48.246Z,96376.91
2024-05-09T00:33:20.258Z,96394.53
2024-05-09T00:33:53.274Z,96391.75
2024-05-09T00:34:24.997Z,96375.13
2024-05-09T00:34:56.830Z,96390.50
2024-05-09T00:35:28.812Z,96371.84
2024-05-09T00:36:01.254Z,96387.13
2024-05-09T00:36:32.980Z,96369.00
2024-05-09T00:37:04.687Z,96362.16
2024-05-09T00:37:36.467Z,96384.56
2024-05-09T00:38:08.480Z,96373.09
2024-05-09T00:38:40.205Z,96377.91
2024-05-09T00:39:11.890Z,96340.94
2024-05-09T00:39:43.585Z,96352.44
2024-05-09T00:40:22.801Z,96385.63
2024-05-09T00:41:02.639Z,96388.63
2024-05-09T00:41:34.421Z,96382.50
2024-05-09T00:42:06.115Z,96353.63
2024-05-09T00:42:40.931Z,96355.69
2024-05-09T00:43:14.368Z,96375.34
2024-05-09T00:43:46.912Z,96391.22
2024-05-09T00:44:18.716Z,96358.50
2024-05-09T00:44:50.407Z,96391.22
2024-05-09T00:45:22.104Z,96365.13
2024-05-09T00:45:57.320Z,96360.28
2024-05-09T00:46:29.449Z,96377.13
2024-05-09T00:47:01.103Z,96394.44
2024-05-09T00:47:36.690Z,96383.56
2024-05-09T00:48:11.073Z,96363.34
2024-05-09T00:48:44.362Z,96359.50
2024-05-09T00:49:16.335Z,96394.78
2024-05-09T00:49:48.751Z,96381.19
2024-05-09T00:50:29.407Z,96389.94
2024-05-09T00:51:06.742Z,96388.69
2024-05-09T00:51:42.053Z,96383.81
2024-05-09T00:52:13.755Z,96385.88
2024-05-09T00:52:46.458Z,96359.56
2024-05-09T00:53:18.995Z,96369.31
2024-05-09T00:53:50.807Z,96383.63
2024-05-09T00:54:23.658Z,96351.50
2024-05-09T00:54:56.655Z,96357.91
2024-05-09T00:55:28.611Z,96387.00
2024-05-09T00:56:01.251Z,96338.72
2024-05-09T00:56:35.140Z,96369.13
2024-05-09T00:57:07.070Z,96370.38
2024-05-09T00:57:39.812Z,96397.97
2024-05-09T00:58:13.720Z,96384.03
2024-05-09T00:58:45.771Z,96380.41
2024-05-09T00:59:18.294Z,96357.44
2024-05-09T00:59:50.447Z,96389.81
2024-05-09T01:00:30.549Z,96369.19
2024-05-09T01:01:07.900Z,96388.00
2024-05-09T01:01:41.185Z,96393.13
2024-05-09T01:02:13.221Z,96384.19
2024-05-09T01:02:45.260Z,96366.09
2024-05-09T01:03:18.006Z,96352.56
2024-05-09T01:03:51.426Z,96386.75
2024-05-09T01:04:23.345Z,96344.13
2024-05-09T01:04:55.610Z,96379.59
2024-05-09T01:05:27.663Z,96324.75
2024-05-09T01:05:59.458Z,96376.25
2024-05-09T01:06:31.280Z,96391.56
2024-05-09T01:07:03.054Z,96356.63
2024-05-09T01:07:34.840Z,96372.44
2024-05-09T01:08:08.050Z,96378.56
2024-05-09T01:08:39.997Z,96356.34
2024-05-09T01:09:11.782Z,96381.13
2024-05-09T01:09:43.489Z,96372.47
2024-05-09T01:10:21.214Z,96385.50
2024-05-09T01:10:59.532Z,96332.94
2024-05-09T01:11:38.952Z,96379.34
2024-05-09T01:12:10.904Z,96387.72
2024-05-09T01:12:42.651Z,96352.56
2024-05-09T01:13:14.361Z,96374.78
2024-05-09T01:13:46.285Z,96365.31
2024-05-09T01:14:18.163Z,96376.31
2024-05-09T01:14:49.876Z,96351.03
2024-05-09T01:15:21.614Z,96378.34
2024-05-09T01:15:54.022Z,96363.06
2024-05-09T01:16:25.788Z,96385.53
2024-05-09T01:16:57.664Z,96358.50
2024-05-09T01:17:29.575Z,96338.53
2024-05-09T01:18:09.441Z,96348.47
2024-05-09T01:18:42.280Z,96362.25
2024-05-09T01:19:25.953Z,96344.91
2024-05-09T01:19:57.883Z,96364.38
2024-05-09T01:20:39.569Z,96338.38
2024-05-09T01:21:14.573Z,96383.78
2024-05-09T01:21:46.301Z,96348.75
2024-05-09T01:22:18.549Z,96350.06
2024-05-09T01:22:52.476Z,96331.41
2024-05-09T01:23:24.224Z,96365.56
2024-05-09T01:23:55.887Z,96358.66
2024-05-09T01:24:27.617Z,96383.88
2024-05-09T01:24:59.284Z,96364.97
2024-05-09T01:25:32.875Z,96374.66
2024-05-09T01:26:04.791Z,96362.97
2024-05-09T01:26:36.594Z,96393.59
2024-05-09T01:27:08.260Z,96343.50
2024-05-09T01:27:40.062Z,96390.53
2024-05-09T01:28:12.087Z,96349.41
2024-05-09T01:28:43.786Z,96386.72
2024-05-09T01:29:15.705Z,96385.44
2024-05-09T01:29:47.399Z,96396.69
2024-05-09T01:30:24.334Z,96395.69
2024-05-09T01:30:59.637Z,96376.09
2024-05-09T01:31:31.332Z,96378.03
2024-05-09T01:32:36.218Z,96341.31
2024-05-09T01:33:10.013Z,96360.94
2024-05-09T01:35:43.310Z,96391.09
2024-05-09T01:36:16.181Z,96371.50
2024-05-09T01:36:47.918Z,96373.47
2024-05-09T01:37:19.586Z,96364.06
2024-05-09T01:37:51.342Z,96382.19
2024-05-09T01:38:23.214Z,96387.78
2024-05-09T01:38:54.945Z,96394.13
2024-05-09T01:39:26.613Z,96384.50
2024-05-09T01:39:58.474Z,96379.63
2024-05-09T01:42:06.878Z,96348.97
2024-05-09T01:42:38.553Z,96386.47
2024-05-09T01:43:11.264Z,96380.34
2024-05-09T01:43:43.819Z,96367.59
2024-05-09T01:44:15.566Z,96401.69
2024-05-09T01:44:47.238Z,96372.69
2024-05-09T01:45:18.906Z,96378.75
2024-05-09T01:45:50.576Z,96376.75
2024-05-09T01:46:22.247Z,96375.50
2024-05-09T01:46:53.947Z,96383.38
2024-05-09T01:47:25.835Z,96340.00
2024-05-09T01:47:57.939Z,96359.09
2024-05-09T01:48:30.015Z,96353.78
2024-05-09T01:49:01.839Z,96327.50
2024-05-09T01:49:38.841Z,96400.94
2024-05-09T01:50:11.096Z,96372.63
2024-05-09T01:50:43.627Z,96379.50
2024-05-09T01:51:15.527Z,96389.72
2024-05-09T01:51:47.303Z,96387.38
2024-05-09T01:52:18.996Z,96395.56
2024-05-09T01:52:51.092Z,96376.72
2024-05-09T01:53:22.921Z,96363.19
2024-05-09T01:53:55.989Z,96380.03
2024-05-09T01:54:27.786Z,96372.94
2024-05-09T01:55:01.984Z,96385.13
2024-05-09T01:55:35.022Z,96372.94
2024-05-09T01:56:07.535Z,96373.16
2024-05-09T01:56:39.118Z,96390.28
2024-05-09T01:57:12.183Z,96377.25
2024-05-09T01:57:43.824Z,96383.88
2024-05-09T01:58:16.083Z,96357.06
2024-05-09T01:58:47.835Z,96397.66
2024-05-09T01:59:19.772Z,96384.16
2024-05-09T01:59:51.467Z,96393.13
2024-05-09T02:00:36.392Z,96337.97
2024-05-09T02:01:11.985Z,96369.38
2024-05-09T02:01:56.275Z,96376.50
2024-05-09T02:02:29.590Z,96360.94
2024-05-09T02:03:01.748Z,96375.22
2024-05-09T02:03:34.002Z,96361.22
2024-05-09T02:04:06.120Z,96349.13
2024-05-09T02:04:38.315Z,96377.56
2024-05-09T02:05:10.196Z,96354.34
2024-05-09T02:05:42.762Z,96355.31
2024-05-09T02:06:14.482Z,96391.84
2024-05-09T02:06:46.154Z,96378.81
2024-05-09T02:07:18.015Z,96366.28
2024-05-09T02:07:49.817Z,96366.53
2024-05-09T02:08:22.341Z,96356.13
2024-05-09T02:08:54.105Z,96395.69
2024-05-09T02:09:25.920Z,96346.91
2024-05-09T02:09:57.645Z,96367.78
2024-05-09T02:10:32.701Z,96391.84
2024-05-09T02:11:05.265Z,96371.16
2024-05-09T02:11:44.563Z,96370.91
2024-05-09T02:12:16.531Z,96359.16
2024-05-09T02:12:48.403Z,96378.75
2024-05-09T02:13:20.151Z,96394.09
2024-05-09T02:13:51.969Z,96379.75
2024-05-09T02:14:24.069Z,96396.63
2024-05-09T02:14:55.844Z,96355.75
2024-05-09T02:15:27.775Z,96384.63
2024-05-09T02:15:59.474Z,96381.78
2024-05-09T02:16:31.131Z,96360.88
2024-05-09T02:17:05.275Z,96392.56
2024-05-09T02:17:37.289Z,96372.38
2024-05-09T02:18:10.254Z,96395.63
2024-05-09T02:18:42.478Z,96357.91
2024-05-09T02:19:14.463Z,96341.31
2024-05-09T02:19:46.201Z,96386.75
2024-05-09T02:20:27.157Z,96383.69
2024-05-09T02:21:05.265Z,96396.69
2024-05-09T02:21:37.107Z,96369.19
2024-05-09T02:22:08.791Z,96376.63
2024-05-09T02:22:40.501Z,96391.03
2024-05-09T02:23:12.619Z,96335.41
2024-05-09T02:23:44.661Z,96354.28
2024-05-09T02:24:16.363Z,96393.06
2024-05-09T02:24:48.040Z,96390.28
2024-05-09T02:25:22.131Z,96389.50
2024-05-09T02:25:53.836Z,96357.91
2024-05-09T02:26:25.627Z,96391.56
2024-05-09T02:26:57.346Z,96368.34
2024-05-09T02:27:29.015Z,96390.31
2024-05-09T02:28:00.811Z,96371.13
2024-05-09T02:28:32.551Z,96363.19
2024-05-09T02:29:04.263Z,96373.19
2024-05-09T02:29:36.011Z,96348.94
2024-05-09T02:30:18.494Z,96346.91
2024-05-09T02:30:57.658Z,96357.84
2024-05-09T02:31:29.334Z,96351.78
2024-05-09T02:32:01.121Z,96379.34
2024-05-09T02:32:32.948Z,96372.09
2024-05-09T02:33:05.270Z,96371.63
2024-05-09T02:33:37.508Z,96358.88
2024-05-09T02:34:09.475Z,96387.97
2024-05-09T02:34:41.163Z,96379.53
2024-05-09T02:35:13.183Z,96365.22
2024-05-09T02:35:44.952Z,96364.00
2024-05-09T02:36:17.184Z,96381.91
2024-05-09T02:36:48.847Z,96313.19
2024-05-09T02:37:20.563Z,96373.19
2024-05-09T02:37:52.412Z,96383.44
2024-05-09T02:38:24.525Z,96381.84
2024-05-09T02:38:56.322Z,96380.81
2024-05-09T02:39:27.994Z,96373.41
2024-05-09T02:39:59.694Z,96353.03
2024-05-09T02:40:37.520Z,96386.41
2024-05-09T02:41:11.025Z,96366.75
2024-05-09T02:41:42.823Z,96377.50
2024-05-09T02:42:14.469Z,96342.56
2024-05-09T02:42:46.125Z,96379.03
2024-05-09T02:43:17.778Z,96369.84
2024-05-09T02:43:49.512Z,96327.25
2024-05-09T02:44:21.545Z,96389.28
2024-05-09T02:44:53.221Z,96357.59
2024-05-09T02:45:24.960Z,96336.16
2024-05-09T02:45:57.760Z,96389.50
2024-05-09T02:46:29.495Z,96357.84
2024-05-09T02:47:01.251Z,96363.47
2024-05-09T02:47:33.147Z,96388.69
2024-05-09T02:48:05.706Z,96387.88
2024-05-09T02:48:37.819Z,96363.06
2024-05-09T02:49:09.727Z,96385.63
2024-05-09T02:49:41.508Z,96391.69
2024-05-09T02:50:16.224Z,96390.22
2024-05-09T02:50:54.448Z,96365.44
2024-05-09T02:51:26.124Z,96381.72
2024-05-09T02:51:57.767Z,96369.25
2024-05-09T02:52:29.497Z,96397.59
2024-05-09T02:53:01.331Z,96392.00
2024-05-09T02:53:33.146Z,96356.84
2024-05-09T02:54:04.928Z,96371.34
2024-05-09T02:54:36.613Z,96374.88
2024-05-09T02:55:08.330Z,96377.19
2024-05-09T02:55:41.342Z,96388.97
2024-05-09T02:56:13.264Z,96365.91
2024-05-09T02:56:45.045Z,96374.63
2024-05-09T02:57:16.737Z,96374.84
2024-05-09T02:57:48.432Z,96389.44
2024-05-09T02:58:20.130Z,96390.22
2024-05-09T02:58:51.819Z,96369.47
2024-05-09T02:59:23.730Z,96391.69
2024-05-09T02:59:55.570Z,96348.56
2024-05-09T03:00:36.304Z,96394.97
2024-05-09T03:01:11.336Z,96358.50
2024-05-09T03:01:46.217Z,96365.91
2024-05-09T03:02:18.083Z,96355.69
2024-05-09T03:02:50.065Z,96389.66
2024-05-09T03:03:22.226Z,96374.81
2024-05-09T03:03:54.532Z,96354.94
2024-05-09T03:04:26.475Z,96367.94
2024-05-09T03:04:58.994Z,96374.34
2024-05-09T03:05:30.704Z,96390.69
2024-05-09T03:06:02.632Z,96379.94
2024-05-09T03:06:34.377Z,96352.97
2024-05-09T03:07:06.062Z,96394.00
2024-05-09T03:07:38.894Z,96383.31
2024-05-09T03:08:10.807Z,96368.00
2024-05-09T03:08:46.927Z,96389.94
2024-05-09T03:09:18.713Z,96378.41
2024-05-09T03:09:50.403Z,96386.59
2024-05-09T03:10:25.744Z,96378.44
2024-05-09T03:11:00.495Z,96382.56
2024-05-09T03:11:32.430Z,96397.81
2024-05-09T03:12:04.656Z,96385.63
2024-05-09T03:12:39.067Z,96394.25
2024-05-09T03:13:14.541Z,96389.38
2024-05-09T03:13:47.540Z,96388.41
2024-05-09T03:14:19.542Z,96376.38
2024-05-09T03:14:51.326Z,96389.38
2024-05-09T03:15:23.087Z,96393.22
2024-05-09T03:15:54.760Z,96369.47
2024-05-09T03:16:26.702Z,96371.84
2024-05-09T03:16:58.496Z,96360.09
2024-05-09T03:17:30.668Z,96380.00
2024-05-09T03:18:03.351Z,96376.72
2024-05-09T03:18:35.259Z,96379.00
2024-05-09T03:19:07.162Z,96368.50
2024-05-09T03:19:38.936Z,96361.06
2024-05-09T03:20:17.555Z,96372.56
2024-05-09T03:20:55.330Z,96382.50
2024-05-09T03:21:27.064Z,96376.16
2024-05-09T03:21:58.973Z,96384.53
2024-05-09T03:22:30.728Z,96373.75
2024-05-09T03:23:02.679Z,96375.34
2024-05-09T03:23:42.258Z,96354.38
2024-05-09T03:24:14.034Z,96331.22
2024-05-09T03:24:45.780Z,96381.69
2024-05-09T03:25:17.527Z,96341.59
2024-05-09T03:25:49.488Z,96350.00
2024-05-09T03:26:21.278Z,96388.03
2024-05-09T03:26:53.071Z,96362.81
2024-05-09T03:27:24.900Z,96398.75
2024-05-09T03:27:56.868Z,96380.09
2024-05-09T03:28:28.578Z,96383.97
2024-05-09T03:29:00.361Z,96364.78
2024-05-09T03:29:32.300Z,96347.72
2024-05-09T03:30:07.244Z,96373.75
2024-05-09T03:30:42.341Z,96375.78
2024-05-09T03:31:18.603Z,96390.84
2024-05-09T03:31:50.432Z,96340.06
2024-05-09T03:32:22.200Z,96366.03
2024-05-09T03:32:54.571Z,96364.78
2024-05-09T03:33:26.832Z,96381.13
2024-05-09T03:33:58.807Z,96375.06
2024-05-09T03:34:30.636Z,96377.59
2024-05-09T03:35:02.431Z,96362.34
2024-05-09T03:35:34.184Z,96376.38
2024-05-09T03:36:09.101Z,96371.31
2024-05-09T03:36:43.202Z,96371.31
2024-05-09T03:37:14.738Z,96382.06
2024-05-09T03:37:46.446Z,96394.78
2024-05-09T03:38:18.440Z,96370.78
2024-05-09T03:38:51.011Z,96362.34
2024-05-09T03:39:22.726Z,96361.81
2024-05-09T03:39:54.480Z,96381.00
2024-05-09T03:40:29.047Z,96362.34
2024-05-09T03:41:02.815Z,96370.78
2024-05-09T03:41:35.455Z,96388.63
2024-05-09T03:42:07.168Z,96391.41
2024-05-09T03:42:41.654Z,96381.72
2024-05-09T03:43:13.811Z,96368.16
2024-05-09T03:43:45.560Z,96340.59
2024-05-09T03:44:17.938Z,96375.34
2024-05-09T03:44:49.705Z,96329.38
2024-05-09T03:45:21.589Z,96378.75
2024-05-09T03:45:53.351Z,96391.75
2024-05-09T03:46:25.051Z,96341.75
2024-05-09T03:46:56.710Z,96368.34
2024-05-09T03:47:28.618Z,96376.72
2024-05-09T03:48:00.650Z,96385.34
2024-05-09T03:48:35.630Z,96364.44
2024-05-09T03:49:08.058Z,96367.53
2024-05-09T03:49:40.048Z,96367.75
2024-05-09T03:50:18.351Z,96378.19
2024-05-09T03:50:57.525Z,96387.72
2024-05-09T03:51:29.183Z,96380.31
2024-05-09T03:52:05.101Z,96348.38
2024-05-09T03:52:36.855Z,96334.88
2024-05-09T03:53:11.531Z,96385.88
2024-05-09T03:53:43.547Z,96346.06
2024-05-09T03:54:15.246Z,96348.09
2024-05-09T03:54:47.517Z,96360.09
2024-05-09T03:55:19.254Z,96375.66
2024-05-09T03:55:50.938Z,96392.72
2024-05-09T03:56:22.760Z,96365.44
2024-05-09T03:56:54.604Z,96385.13
2024-05-09T03:57:26.278Z,96390.69
2024-05-09T03:57:58.108Z,96365.44
2024-05-09T03:58:29.765Z,96363.34
2024-05-09T03:59:01.688Z,96387.38
2024-05-09T03:59:33.421Z,96350.34
2024-05-09T04:00:11.962Z,96357.78
2024-05-09T04:00:49.136Z,96365.72
2024-05-09T04:01:20.939Z,96377.91
2024-05-09T04:01:54.961Z,96358.25
2024-05-09T04:02:26.762Z,96351.59
2024-05-09T04:02:59.429Z,96372.00
2024-05-09T04:03:31.646Z,96365.88
2024-05-09T04:04:03.500Z,96369.16
2024-05-09T04:04:35.261Z,96382.19
2024-05-09T04:05:07.033Z,96392.63
2024-05-09T04:05:44.445Z,96371.72
2024-05-09T04:06:26.659Z,96365.06
2024-05-09T04:06:59.509Z,96397.16
2024-05-09T04:07:33.229Z,96349.47
2024-05-09T04:08:05.540Z,96398.22
2024-05-09T04:08:37.462Z,96386.50
2024-05-09T04:09:09.499Z,96394.16
2024-05-09T04:09:43.488Z,96378.03
2024-05-09T04:10:23.993Z,96393.81
2024-05-09T04:11:02.336Z,96390.06
2024-05-09T04:11:34.335Z,96392.63
2024-05-09T04:12:07.902Z,96371.91
2024-05-09T04:12:39.613Z,96370.97
2024-05-09T04:13:11.320Z,96391.63
2024-05-09T04:13:43.364Z,96399.78
2024-05-09T04:14:15.079Z,96347.50
2024-05-09T04:14:46.795Z,96349.47
2024-05-09T04:15:18.478Z,96397.75
2024-05-09T04:15:50.214Z,96401.31
2024-05-09T04:16:21.906Z,96357.13
2024-05-09T04:16:53.616Z,96373.50
2024-05-09T04:17:25.509Z,96397.50
2024-05-09T04:17:57.402Z,96395.47
2024-05-09T04:18:29.402Z,96390.09
2024-05-09T04:19:01.166Z,96358.22
2024-05-09T04:19:33.030Z,96350.84
2024-05-09T04:20:08.228Z,96376.13
2024-05-09T04:20:41.311Z,96401.09
2024-05-09T04:21:13.319Z,96402.69
2024-05-09T04:21:44.990Z,96411.53
2024-05-09T04:22:17.216Z,96385.03
2024-05-09T04:22:48.988Z,96396.50
2024-05-09T04:23:21.111Z,96395.19
2024-05-09T04:23:52.739Z,96399.78
2024-05-09T04:24:24.410Z,96395.13
2024-05-09T04:24:56.133Z,96378.78
2024-05-09T04:25:27.865Z,96385.44
2024-05-09T04:25:59.608Z,96405.16
2024-05-09T04:26:31.433Z,96377.84
2024-05-09T04:27:03.159Z,96342.78
2024-05-09T04:27:34.917Z,96388.03
2024-05-09T04:28:06.883Z,96389.00
2024-05-09T04:28:38.561Z,96400.00
2024-05-09T04:29:10.369Z,96399.59
2024-05-09T04:29:42.094Z,96356.63
2024-05-09T04:30:21.634Z,96393.13
2024-05-09T04:31:02.091Z,96402.75
2024-05-09T04:31:36.777Z,96419.31
2024-05-09T04:32:08.777Z,96404.50
2024-05-09T04:32:43.179Z,96396.69
2024-05-09T04:33:15.592Z,96376.47
2024-05-09T04:33:47.652Z,96374.63
2024-05-09T04:34:19.637Z,96411.16
2024-05-09T04:34:51.487Z,96383.34
2024-05-09T04:35:23.338Z,96386.38
2024-05-09T04:35:55.066Z,96394.06
2024-05-09T04:36:27.594Z,96387.47
2024-05-09T04:36:59.134Z,96417.03
2024-05-09T04:37:30.777Z,96357.56
2024-05-09T04:38:02.768Z,96410.16
2024-05-09T04:38:34.798Z,96424.69
2024-05-09T04:39:06.645Z,96390.25
2024-05-09T04:39:38.385Z,96400.22
2024-05-09T04:40:20.507Z,96423.72
2024-05-09T04:40:56.118Z,96346.56
2024-05-09T04:41:27.904Z,96421.63
2024-05-09T04:41:59.690Z,96391.13
2024-05-09T04:42:31.361Z,96423.66
2024-05-09T04:43:03.908Z,96381.81
2024-05-09T04:43:35.834Z,96405.28
2024-05-09T04:44:07.587Z,96418.22
2024-05-09T04:44:39.265Z,96409.59
2024-05-09T04:45:11.085Z,96422.88
2024-05-09T04:45:43.012Z,96397.56
2024-05-09T04:46:14.872Z,96421.78
2024-05-09T04:46:49.782Z,96408.06
2024-05-09T04:47:21.775Z,96417.19
2024-05-09T04:47:54.630Z,96420.53
2024-05-09T04:48:26.939Z,96412.38
2024-05-09T04:48:58.804Z,96428.25
2024-05-09T04:49:30.586Z,96389.19
2024-05-09T04:50:02.614Z,96405.50
2024-05-09T04:50:38.169Z,96437.38
2024-05-09T04:51:11.243Z,96416.69
2024-05-09T04:51:42.940Z,96372.75
2024-05-09T04:52:14.590Z,96416.50
2024-05-09T04:52:46.364Z,96433.06
2024-05-09T04:53:18.278Z,96413.91
2024-05-09T04:53:50.069Z,96413.91
2024-05-09T04:54:33.468Z,96419.28
2024-05-09T04:55:07.860Z,96436.13
2024-05-09T04:55:40.554Z,96406.91
2024-05-09T04:56:12.531Z,96396.28
2024-05-09T04:56:44.328Z,96434.25
2024-05-09T04:57:16.146Z,96433.34
2024-05-09T04:57:47.825Z,96391.44
2024-05-09T04:58:19.790Z,96418.22
2024-05-09T04:58:51.724Z,96375.84
2024-05-09T04:59:23.711Z,96428.75
2024-05-09T04:59:56.078Z,96434.88
2024-05-09T05:00:35.514Z,96437.13
2024-05-09T05:01:09.353Z,96433.84
2024-05-09T05:01:42.119Z,96394.16
2024-05-09T05:02:14.038Z,96399.34
2024-05-09T05:02:45.890Z,96432.31
2024-05-09T05:03:18.029Z,96418.00
2024-05-09T05:03:50.052Z,96413.69
2024-05-09T05:04:21.871Z,96409.38
2024-05-09T05:04:53.766Z,96370.81
2024-05-09T05:05:25.556Z,96407.28
2024-05-09T05:05:57.413Z,96435.16
2024-05-09T05:06:30.231Z,96434.16
2024-05-09T05:07:02.994Z,96432.09
2024-05-09T05:07:34.981Z,96430.00
2024-05-09T05:08:11.956Z,96379.00
2024-05-09T05:08:43.751Z,96431.31
2024-05-09T05:09:15.513Z,96434.09
2024-05-09T05:09:47.190Z,96427.50
2024-05-09T05:10:25.327Z,96382.56
2024-05-09T05:11:01.181Z,96433.34
2024-05-09T05:11:33.207Z,96389.41
2024-05-09T05:12:25.241Z,96347.28
2024-05-09T05:13:15.743Z,96410.38
2024-05-09T05:13:47.531Z,96398.59
2024-05-09T05:14:19.347Z,96388.16
2024-05-09T05:14:51.264Z,96380.19
2024-05-09T05:15:23.019Z,96432.31
2024-05-09T05:15:57.406Z,96425.41
2024-05-09T05:16:29.862Z,96433.56
2024-05-09T05:17:01.696Z,96412.94
2024-05-09T05:17:33.643Z,96439.19
2024-05-09T05:18:05.831Z,96445.03
2024-05-09T05:18:37.718Z,96432.63
2024-05-09T05:19:12.023Z,96435.91
2024-05-09T05:19:45.207Z,96421.84
2024-05-09T05:20:24.498Z,96439.69
2024-05-09T05:21:03.027Z,96418.75
2024-05-09T05:21:34.853Z,96386.13
2024-05-09T05:22:08.082Z,96414.66
2024-05-09T05:22:43.106Z,96399.91
2024-05-09T05:23:16.783Z,96440.50
2024-05-09T05:23:48.648Z,96441.75
2024-05-09T05:24:20.457Z,96423.38
2024-05-09T05:24:52.130Z,96390.97
2024-05-09T05:25:23.776Z,96423.94
2024-05-09T05:25:55.887Z,96440.03
2024-05-09T05:26:27.769Z,96419.53
2024-05-09T05:26:59.505Z,96433.63
2024-05-09T05:27:31.254Z,96400.22
2024-05-09T05:28:02.989Z,96423.38
2024-05-09T05:28:34.683Z,96431.00
2024-05-09T05:29:06.406Z,96450.69
2024-05-09T05:29:38.382Z,96422.41
2024-05-09T05:30:17.546Z,96437.25
2024-05-09T05:30:52.953Z,96421.78
2024-05-09T05:31:24.653Z,96423.38
2024-05-09T05:31:56.487Z,96427.75
2024-05-09T05:32:28.393Z,96448.19
2024-05-09T05:33:00.487Z,96418.34
2024-05-09T05:33:32.418Z,96405.28
2024-05-09T05:34:04.359Z,96410.41
2024-05-09T05:34:36.205Z,96434.03
2024-05-09T05:35:07.952Z,96446.88
2024-05-09T05:35:41.195Z,96421.53
2024-05-09T05:36:12.907Z,96438.69
2024-05-09T05:36:44.584Z,96444.06
2024-05-09T05:37:16.234Z,96407.59
2024-05-09T05:37:47.972Z,96420.78
2024-05-09T05:38:23.726Z,96423.38
2024-05-09T05:38:58.182Z,96444.63
2024-05-09T05:39:29.976Z,96427.69
2024-05-09T05:40:01.798Z,96395.59
2024-05-09T05:40:37.456Z,96446.41
2024-05-09T05:41:10.366Z,96442.38
2024-05-09T05:41:42.172Z,96449.50
2024-05-09T05:42:13.821Z,96426.78
2024-05-09T05:42:45.484Z,96445.16
2024-05-09T05:43:19.209Z,96439.84
2024-05-09T05:43:54.023Z,96391.53
2024-05-09T05:44:25.858Z,96429.66
2024-05-09T05:44:57.562Z,96403.09
2024-05-09T05:45:29.242Z,96447.50
2024-05-09T05:46:00.947Z,96400.00
2024-05-09T05:46:32.595Z,96450.56
2024-05-09T05:47:04.571Z,96435.00
2024-05-09T05:47:37.734Z,96397.94
2024-05-09T05:48:10.028Z,96426.38
2024-05-09T05:48:41.866Z,96429.19
2024-05-09T05:49:13.779Z,96416.94
2024-05-09T05:49:45.655Z,96445.81
2024-05-09T05:50:24.726Z,96405.66
2024-05-09T05:51:05.690Z,96429.44
2024-05-09T05:51:37.427Z,96438.16
2024-05-09T05:52:12.324Z,96420.03
2024-05-09T05:52:44.177Z,96431.25
2024-05-09T05:53:15.995Z,96424.38
2024-05-09T05:53:47.752Z,96450.94
2024-05-09T05:54:19.450Z,96446.06
2024-05-09T05:54:51.993Z,96439.16
2024-05-09T05:55:23.555Z,96457.84
2024-05-09T05:55:55.285Z,96424.41
2024-05-09T05:56:27.606Z,96451.72
2024-05-09T05:56:59.641Z,96403.50
2024-05-09T05:57:31.352Z,96458.66
2024-05-09T05:58:03.211Z,96458.66
2024-05-09T05:58:34.885Z,96444.88
2024-05-09T05:59:06.677Z,96437.19
2024-05-09T05:59:38.486Z,96451.28
2024-05-09T06:00:15.155Z,96459.66
2024-05-09T06:00:53.030Z,96457.34
2024-05-09T06:01:24.912Z,96454.81
2024-05-09T06:01:57.751Z,96443.88
2024-05-09T06:02:29.450Z,96427.22
2024-05-09T06:03:01.260Z,96438.78
2024-05-09T06:03:33.184Z,96443.63
2024-05-09T06:04:05.097Z,96456.34
2024-05-09T06:04:36.874Z,96422.94
2024-05-09T06:05:09.610Z,96430.09
2024-05-09T06:05:45.863Z,96408.97
2024-05-09T06:06:17.671Z,96462.81
2024-05-09T06:06:49.597Z,96452.84
2024-05-09T06:07:21.385Z,96460.00
2024-05-09T06:07:53.138Z,96450.56
2024-05-09T06:08:27.051Z,96431.44
2024-05-09T06:09:00.502Z,96438.03
2024-05-09T06:09:32.145Z,96437.91
2024-05-09T06:10:07.254Z,96450.38
2024-05-09T06:10:43.142Z,96432.56
2024-05-09T06:11:14.906Z,96452.22
2024-05-09T06:11:46.715Z,96443.06
2024-05-09T06:12:18.644Z,96411.41
2024-05-09T06:12:50.359Z,96440.75
2024-05-09T06:13:22.100Z,96401.66
2024-05-09T06:13:53.807Z,96440.25
2024-05-09T06:14:25.650Z,96430.59
2024-05-09T06:14:57.279Z,96439.00
2024-05-09T06:15:28.929Z,96415.78
2024-05-09T06:16:00.820Z,96439.25
2024-05-09T06:16:33.597Z,96442.00
2024-05-09T06:17:05.287Z,96433.59
2024-05-09T06:17:37.145Z,96387.13
2024-05-09T06:18:10.743Z,96448.69
2024-05-09T06:18:43.696Z,96422.69
2024-05-09T06:19:15.547Z,96409.13
2024-05-09T06:19:47.561Z,96448.94
2024-05-09T06:20:24.047Z,96453.28
2024-05-09T06:21:03.735Z,96442.09
2024-05-09T06:21:35.412Z,96420.91
2024-05-09T06:22:09.427Z,96427.28
2024-05-09T06:22:41.072Z,96446.44
2024-05-09T06:23:13.741Z,96414.78
2024-05-09T06:23:46.707Z,96417.16
2024-05-09T06:24:18.497Z,96428.38
2024-05-09T06:24:50.168Z,96445.75
2024-05-09T06:25:21.864Z,96427.06
2024-05-09T06:25:53.566Z,96413.53
2024-05-09T06:26:25.314Z,96449.78
2024-05-09T06:26:57.141Z,96442.22
2024-05-09T06:27:28.835Z,96390.34
2024-05-09T06:28:01.721Z,96415.88
2024-05-09T06:28:35.762Z,96406.47
2024-05-09T06:29:07.511Z,96441.44
2024-05-09T06:29:39.689Z,96449.59
2024-05-09T06:30:24.826Z,96428.63